Time;durP1;ratioP1;P1;durP2;ratioP2;P2;SDS_P1;SDS_P2;PMS_P1;PMS_P2;Temp;Humidity;BMP_temperature;BMP_pressure;BME280_temperature;BME280_humidity;BME280_pressure;Samples;Min_cycle;Max_cycle;Signal;HPM_P1;HPM_P2
2023/12/27 00:01:28;;;;;;;0.80;0.40;;;9.10;99.90;;;;;;5028940;28;20041;-75
2023/12/27 00:03:53;;;;;;;5.13;0.82;;;9.30;99.90;;;;;;5038689;28;20091;-74
2023/12/27 00:06:19;;;;;;;12.55;0.70;;;9.40;99.90;;;;;;5035305;28;20033;-75
2023/12/27 00:08:45;;;;;;;4.43;0.90;;;9.40;99.90;;;;;;5032087;28;20124;-74
2023/12/27 00:11:11;;;;;;;5.80;1.05;;;9.40;99.90;;;;;;5036216;28;20058;-74
2023/12/27 00:13:37;;;;;;;2.78;0.68;;;9.40;99.90;;;;;;5037163;28;20044;-75
2023/12/27 00:16:03;;;;;;;2.75;0.50;;;9.40;99.90;;;;;;5036045;28;20485;-74
2023/12/27 00:18:28;;;;;;;5.70;0.55;;;9.40;99.90;;;;;;5042148;28;20063;-75
2023/12/27 00:20:54;;;;;;;5.70;0.90;;;9.40;99.90;;;;;;5032609;28;20414;-75
2023/12/27 00:23:19;;;;;;;2.00;0.65;;;9.50;99.90;;;;;;5035355;28;20555;-75
2023/12/27 00:25:45;;;;;;;3.85;0.75;;;9.50;99.90;;;;;;5036764;28;20064;-75
2023/12/27 00:28:11;;;;;;;9.40;1.25;;;9.50;99.90;;;;;;5033775;28;20040;-75
2023/12/27 00:30:36;;;;;;;6.65;0.88;;;9.40;99.90;;;;;;5033427;28;20717;-74
2023/12/27 00:33:02;;;;;;;1.35;0.70;;;9.50;99.90;;;;;;5036745;28;20040;-74
2023/12/27 00:35:28;;;;;;;4.75;0.80;;;9.50;99.90;;;;;;5035439;28;20021;-74
2023/12/27 00:37:54;;;;;;;4.82;0.60;;;9.50;99.90;;;;;;5040469;28;20044;-74
2023/12/27 00:40:19;;;;;;;5.10;0.52;;;9.50;99.90;;;;;;5034213;28;20037;-74
2023/12/27 00:42:46;;;;;;;11.98;1.65;;;9.50;99.90;;;;;;5033668;28;20423;-73
2023/12/27 00:45:12;;;;;;;7.38;0.65;;;9.50;99.90;;;;;;5036746;28;20116;-75
2023/12/27 00:47:37;;;;;;;6.18;0.77;;;9.50;99.90;;;;;;5033524;28;20039;-75
2023/12/27 00:50:03;;;;;;;5.25;1.08;;;9.50;99.90;;;;;;5033738;28;20037;-75
2023/12/27 00:52:29;;;;;;;7.00;1.33;;;9.50;99.90;;;;;;5038083;28;20033;-74
2023/12/27 00:54:55;;;;;;;9.55;1.80;;;9.50;99.90;;;;;;5032775;28;20048;-75
2023/12/27 00:57:20;;;;;;;1.95;1.15;;;9.60;99.90;;;;;;5039036;28;20120;-74
2023/12/27 00:59:46;;;;;;;3.63;0.95;;;9.60;99.90;;;;;;5034120;28;20063;-73
2023/12/27 01:02:12;;;;;;;6.72;0.98;;;9.60;99.90;;;;;;5029069;28;20086;-73
2023/12/27 01:04:37;;;;;;;2.72;1.13;;;9.70;99.90;;;;;;5037558;28;20037;-74
2023/12/27 01:07:03;;;;;;;3.95;1.20;;;9.60;99.90;;;;;;5035729;28;20040;-74
2023/12/27 01:09:29;;;;;;;6.68;1.10;;;9.60;99.90;;;;;;5033116;28;21533;-74
2023/12/27 01:11:55;;;;;;;1.10;0.98;;;9.60;99.90;;;;;;5035642;28;20031;-74
2023/12/27 01:14:20;;;;;;;2.83;0.90;;;9.70;99.90;;;;;;5030115;28;20067;-74
2023/12/27 01:16:46;;;;;;;6.60;1.42;;;9.70;99.90;;;;;;5036166;28;20086;-73
2023/12/27 01:19:12;;;;;;;0.98;0.75;;;9.70;99.90;;;;;;5037517;28;20033;-74
2023/12/27 01:21:38;;;;;;;4.97;1.10;;;;;;;;;;5034765;28;20079;-75
2023/12/27 01:24:04;;;;;;;1.27;0.77;;;9.90;99.90;;;;;;5033938;28;20040;-75
2023/12/27 01:26:30;;;;;;;12.93;1.52;;;9.90;99.90;;;;;;5032164;28;20086;-75
2023/12/27 01:28:55;;;;;;;3.28;0.75;;;9.90;99.90;;;;;;5026055;28;20044;-74
2023/12/27 01:31:21;;;;;;;3.97;0.73;;;10.00;99.90;;;;;;5031368;28;20033;-74
2023/12/27 01:33:47;;;;;;;0.80;0.77;;;10.00;99.90;;;;;;5031394;28;20033;-74
2023/12/27 01:36:12;;;;;;;0.65;0.60;;;10.00;99.90;;;;;;5035913;28;20386;-74
2023/12/27 01:38:38;;;;;;;3.15;1.00;;;10.00;99.90;;;;;;5036667;28;20029;-74
2023/12/27 01:41:04;;;;;;;1.75;1.60;;;10.10;99.90;;;;;;5029186;28;20477;-73
2023/12/27 01:43:29;;;;;;;0.50;0.40;;;10.30;99.90;;;;;;5030130;28;20041;-73
2023/12/27 01:45:56;;;;;;;0.85;0.50;;;10.40;99.90;;;;;;5036080;28;20041;-74
2023/12/27 01:48:22;;;;;;;0.40;0.40;;;10.40;99.90;;;;;;5031337;28;20041;-73
2023/12/27 01:50:49;;;;;;;0.30;0.30;;;10.50;99.90;;;;;;5033497;28;20498;-73
2023/12/27 01:53:17;;;;;;;0.40;0.40;;;10.50;99.90;;;;;;5034686;28;20043;-74
2023/12/27 01:55:44;;;;;;;3.25;0.38;;;10.50;99.90;;;;;;5030192;28;20036;-73
2023/12/27 01:58:12;;;;;;;1.27;0.90;;;10.50;99.90;;;;;;5034822;28;20040;-73
2023/12/27 02:00:41;;;;;;;0.95;0.28;;;10.50;99.90;;;;;;5029753;28;20342;-73
2023/12/27 02:03:07;;;;;;;0.20;0.20;;;10.60;99.90;;;;;;5026779;28;20077;-73
2023/12/27 02:05:34;;;;;;;2.25;0.17;;;10.50;99.90;;;;;;5032603;28;20480;-73
2023/12/27 02:08:00;;;;;;;2.30;0.30;;;10.60;99.90;;;;;;5033719;28;20525;-73
2023/12/27 02:10:27;;;;;;;0.20;0.20;;;10.60;99.90;;;;;;5035847;28;20071;-73
2023/12/27 02:12:54;;;;;;;0.75;0.30;;;10.60;99.90;;;;;;5034977;28;20060;-74
2023/12/27 02:15:20;;;;;;;4.78;0.55;;;10.60;99.90;;;;;;5029927;28;20577;-73
2023/12/27 02:17:46;;;;;;;1.20;0.93;;;10.60;99.90;;;;;;5035898;28;20045;-73
2023/12/27 02:20:11;;;;;;;10.02;0.50;;;10.60;99.90;;;;;;5059532;28;20099;-73
2023/12/27 02:22:39;;;;;;;2.55;0.45;;;10.60;99.90;;;;;;5036084;28;20596;-72
2023/12/27 02:25:05;;;;;;;3.92;0.43;;;10.70;99.90;;;;;;5034350;28;20524;-72
2023/12/27 02:27:31;;;;;;;0.30;0.30;;;10.70;99.90;;;;;;5035156;28;20052;-72
2023/12/27 02:29:56;;;;;;;1.95;1.08;;;10.70;99.90;;;;;;5032496;28;20378;-72
2023/12/27 02:32:23;;;;;;;1.33;0.50;;;10.70;99.90;;;;;;5034603;28;20028;-73
2023/12/27 02:34:49;;;;;;;5.28;0.47;;;10.70;99.90;;;;;;5030693;28;20033;-72
2023/12/27 02:37:15;;;;;;;0.22;0.22;;;10.70;99.90;;;;;;5036686;28;20029;-71
2023/12/27 02:39:40;;;;;;;0.95;0.50;;;10.70;99.90;;;;;;5035382;28;20212;-73
2023/12/27 02:42:06;;;;;;;0.55;0.13;;;10.60;99.90;;;;;;5033861;28;20036;-73
2023/12/27 02:44:31;;;;;;;2.80;0.57;;;10.70;99.90;;;;;;5032725;28;20029;-72
2023/12/27 02:46:57;;;;;;;3.72;0.57;;;;;;;;;;5034857;28;20088;-72
2023/12/27 02:49:23;;;;;;;1.80;0.60;;;11.30;99.90;;;;;;5032930;28;21019;-72
2023/12/27 02:51:49;;;;;;;4.25;1.30;;;10.80;99.90;;;;;;5032931;28;20087;-73
2023/12/27 02:54:16;;;;;;;0.75;0.40;;;;;;;;;;5032000;28;20052;-73
2023/12/27 02:56:45;;;;;;;3.03;1.15;;;;;;;;;;5033022;28;20025;-72
2023/12/27 02:59:24;;;;;;;1.17;0.55;;;;;;;;;;5034157;28;20033;-72
2023/12/27 03:01:50;;;;;;;1.25;0.88;;;10.90;99.90;;;;;;5025381;28;20029;-73
2023/12/27 03:04:18;;;;;;;2.05;0.70;;;10.80;99.90;;;;;;5035180;28;20025;-73
2023/12/27 03:06:44;;;;;;;0.82;0.70;;;10.80;99.90;;;;;;5033748;28;20495;-72
2023/12/27 03:09:10;;;;;;;1.48;0.95;;;10.80;99.90;;;;;;5030124;28;20128;-73
2023/12/27 03:11:36;;;;;;;0.70;0.52;;;10.80;99.90;;;;;;5035179;28;20021;-72
2023/12/27 03:14:44;;;;;;;10.60;1.33;;;;;;;;;;5036738;28;20041;-73
2023/12/27 03:17:12;;;;;;;17.23;1.57;;;;;;;;;;5029276;28;20026;-73
2023/12/27 03:19:38;;;;;;;1.27;0.95;;;;;;;;;;5033359;28;20361;-72
2023/12/27 03:22:08;;;;;;;4.03;0.98;;;9.60;99.90;;;;;;5028519;28;20199;-72
2023/12/27 03:24:36;;;;;;;1.48;0.45;;;;;;;;;;5032031;28;20164;-72
2023/12/27 03:27:02;;;;;;;2.20;0.60;;;;;;;;;;5035409;28;20065;-72
2023/12/27 03:29:28;;;;;;;8.93;0.60;;;;;;;;;;5029084;28;20056;-72
2023/12/27 03:31:54;;;;;;;16.48;1.48;;;;;;;;;;5034969;28;20509;-72
2023/12/27 03:34:20;;;;;;;0.28;0.28;;;;;;;;;;5030022;28;20257;-72
2023/12/27 03:36:46;;;;;;;2.33;0.80;;;;;;;;;;5032423;28;20025;-73
2023/12/27 03:39:12;;;;;;;4.50;0.77;;;;;;;;;;5033533;28;20033;-73
2023/12/27 03:41:38;;;;;;;9.27;1.30;;;;;;;;;;5027717;28;20537;-73
2023/12/27 03:44:04;;;;;;;3.42;1.33;;;;;;;;;;5031839;28;20032;-73
2023/12/27 03:46:30;;;;;;;12.80;0.90;;;;;;;;;;5035720;28;20041;-72
2023/12/27 03:48:57;;;;;;;0.93;0.50;;;;;;;;;;5027974;28;20025;-72
2023/12/27 03:51:23;;;;;;;7.80;1.05;;;;;;;;;;5034139;28;20120;-72
2023/12/27 03:53:49;;;;;;;12.52;0.85;;;;;;;;;;5033312;28;20504;-71
2023/12/27 03:56:15;;;;;;;10.10;1.40;;;;;;;;;;5030566;28;20681;-72
2023/12/27 03:58:43;;;;;;;3.28;0.60;;;;;;;;;;5032662;28;20079;-72
2023/12/27 04:01:09;;;;;;;4.50;1.00;;;;;;;;;;5030640;28;20115;-72
2023/12/27 04:03:35;;;;;;;3.15;1.45;;;;;;;;;;5026859;28;20048;-72
2023/12/27 04:06:01;;;;;;;14.15;1.08;;;;;;;;;;5033489;28;20037;-72
2023/12/27 04:08:27;;;;;;;2.30;0.90;;;;;;;;;;5037749;28;20033;-72
2023/12/27 04:10:53;;;;;;;7.93;1.50;;;;;;;;;;5034682;28;20032;-72
2023/12/27 04:13:19;;;;;;;2.72;1.25;;;;;;;;;;5037443;28;20117;-72
2023/12/27 04:15:45;;;;;;;2.70;0.80;;;;;;;;;;5034426;28;20025;-71
2023/12/27 04:18:13;;;;;;;7.43;1.40;;;;;;;;;;5033488;28;20669;-72
2023/12/27 04:20:39;;;;;;;8.48;1.27;;;;;;;;;;5038003;28;20033;-73
2023/12/27 04:23:05;;;;;;;3.78;1.08;;;;;;;;;;5032058;28;20067;-72
2023/12/27 04:25:31;;;;;;;2.45;1.35;;;;;;;;;;5038574;28;20045;-72
2023/12/27 04:27:57;;;;;;;3.88;1.48;;;;;;;;;;5036964;28;20192;-72
2023/12/27 04:30:23;;;;;;;4.45;1.13;;;;;;;;;;5030648;28;20025;-73
2023/12/27 04:32:49;;;;;;;14.80;1.52;;;;;;;;;;5037553;28;20033;-72
2023/12/27 04:35:15;;;;;;;15.00;1.35;;;;;;;;;;5031453;28;20555;-72
2023/12/27 04:37:41;;;;;;;7.75;1.70;;;;;;;;;;5034481;28;20120;-72
2023/12/27 04:40:07;;;;;;;8.00;1.35;;;;;;;;;;5036577;28;20074;-72
2023/12/27 04:42:33;;;;;;;2.03;1.73;;;;;;;;;;5030620;28;20026;-72
2023/12/27 04:44:59;;;;;;;15.25;1.75;;;11.20;99.90;;;;;;5038844;28;20033;-72
2023/12/27 04:47:24;;;;;;;2.15;1.42;;;11.30;99.90;;;;;;5034064;28;20571;-72
2023/12/27 04:49:50;;;;;;;6.57;2.10;;;11.20;99.90;;;;;;5031133;28;20042;-73
2023/12/27 04:52:16;;;;;;;9.30;1.33;;;11.20;99.90;;;;;;5038711;28;20485;-72
2023/12/27 04:54:41;;;;;;;5.43;2.70;;;11.20;99.90;;;;;;5035714;28;20037;-72
2023/12/27 04:57:07;;;;;;;8.65;1.23;;;11.10;99.90;;;;;;5036204;28;20402;-72
2023/12/27 04:59:33;;;;;;;13.60;1.65;;;11.20;99.90;;;;;;5061504;28;20044;-72
2023/12/27 05:01:59;;;;;;;2.38;1.40;;;11.10;99.90;;;;;;5055501;28;20067;-72
2023/12/27 05:04:24;;;;;;;6.65;2.00;;;11.20;99.90;;;;;;5029286;28;20475;-72
2023/12/27 05:06:50;;;;;;;12.98;0.90;;;11.20;99.90;;;;;;5036054;28;20231;-71
2023/12/27 05:09:17;;;;;;;3.95;1.85;;;11.20;99.90;;;;;;5031564;28;20159;-71
2023/12/27 05:11:42;;;;;;;8.40;1.42;;;11.20;99.90;;;;;;5023819;28;20026;-71
2023/12/27 05:14:08;;;;;;;10.05;1.52;;;11.20;99.90;;;;;;5037987;28;20060;-71
2023/12/27 05:16:34;;;;;;;15.13;2.40;;;11.20;99.90;;;;;;5029811;28;20456;-71
2023/12/27 05:19:00;;;;;;;9.82;1.83;;;11.20;99.90;;;;;;5035948;28;20041;-72
2023/12/27 05:21:26;;;;;;;10.23;1.77;;;11.20;99.90;;;;;;5031564;28;20769;-72
2023/12/27 05:23:52;;;;;;;10.75;1.70;;;11.20;99.90;;;;;;5031988;28;20056;-72
2023/12/27 05:26:17;;;;;;;18.23;1.80;;;11.20;99.90;;;;;;5036765;28;20399;-72
2023/12/27 05:28:43;;;;;;;3.00;0.63;;;11.20;99.90;;;;;;5034016;28;20067;-71
2023/12/27 05:31:08;;;;;;;4.20;1.55;;;11.20;99.90;;;;;;5032920;28;20056;-71
2023/12/27 05:33:34;;;;;;;5.68;1.77;;;11.10;99.90;;;;;;5036212;28;20041;-71
2023/12/27 05:36:00;;;;;;;3.85;2.05;;;11.20;99.90;;;;;;5029993;28;20106;-72
2023/12/27 05:38:25;;;;;;;6.90;1.50;;;11.20;99.90;;;;;;5036718;28;20055;-71
2023/12/27 05:40:51;;;;;;;2.45;1.83;;;11.20;99.90;;;;;;5035565;28;20030;-71
2023/12/27 05:43:17;;;;;;;8.55;1.65;;;11.10;99.90;;;;;;5033719;28;20032;-71
2023/12/27 05:45:42;;;;;;;7.57;1.60;;;11.20;99.90;;;;;;5035836;28;20033;-71
2023/12/27 05:48:08;;;;;;;2.78;1.52;;;11.10;99.90;;;;;;5038235;28;20414;-71
2023/12/27 05:50:34;;;;;;;7.97;2.05;;;11.10;99.90;;;;;;5030712;28;20037;-71
2023/12/27 05:52:59;;;;;;;9.15;2.00;;;11.10;99.90;;;;;;5035940;28;20028;-72
2023/12/27 05:55:25;;;;;;;3.80;1.40;;;11.20;99.90;;;;;;5032407;28;20031;-71
2023/12/27 05:57:51;;;;;;;14.52;3.20;;;11.10;99.90;;;;;;5037308;28;20021;-71
2023/12/27 06:00:17;;;;;;;9.98;1.52;;;11.10;99.90;;;;;;5036100;28;20403;-72
2023/12/27 06:02:43;;;;;;;5.65;1.65;;;11.10;99.90;;;;;;5034523;28;20116;-71
2023/12/27 06:05:09;;;;;;;2.97;1.67;;;11.20;99.90;;;;;;5036931;28;20029;-71
2023/12/27 06:07:35;;;;;;;16.65;3.05;;;11.20;99.90;;;;;;5035991;28;20025;-70
2023/12/27 06:10:02;;;;;;;8.82;2.53;;;11.20;99.90;;;;;;5028297;28;20230;-72
2023/12/27 06:12:28;;;;;;;4.95;1.73;;;11.20;99.90;;;;;;5033298;28;20085;-71
2023/12/27 06:14:53;;;;;;;7.53;2.67;;;11.20;99.90;;;;;;5033916;28;20558;-71
2023/12/27 06:17:19;;;;;;;12.23;2.47;;;11.20;99.90;;;;;;5030685;28;20067;-72
2023/12/27 06:19:46;;;;;;;7.07;1.92;;;11.20;99.90;;;;;;5026151;28;20040;-71
2023/12/27 06:22:11;;;;;;;10.77;2.80;;;11.20;99.90;;;;;;5031765;28;20092;-70
2023/12/27 06:24:37;;;;;;;2.88;1.60;;;11.20;99.90;;;;;;5033245;28;20116;-72
2023/12/27 06:27:06;;;;;;;15.93;2.72;;;11.30;99.90;;;;;;5019912;28;20041;-73
2023/12/27 06:29:32;;;;;;;11.60;3.08;;;11.30;99.90;;;;;;5026000;28;20037;-71
2023/12/27 06:31:58;;;;;;;7.60;1.80;;;11.30;99.90;;;;;;5030540;28;20033;-70
2023/12/27 06:34:23;;;;;;;17.40;2.42;;;11.30;99.90;;;;;;5032488;28;20469;-70
2023/12/27 06:36:51;;;;;;;6.45;2.00;;;11.30;99.90;;;;;;5026756;28;20041;-71
2023/12/27 06:39:17;;;;;;;12.32;2.15;;;11.40;99.90;;;;;;5034971;28;20529;-72
2023/12/27 06:41:43;;;;;;;6.90;2.00;;;11.30;99.90;;;;;;5027863;28;20033;-72
2023/12/27 06:44:09;;;;;;;10.23;2.25;;;11.30;99.90;;;;;;5030324;28;20036;-72
2023/12/27 06:46:35;;;;;;;6.22;2.35;;;11.30;99.90;;;;;;5032933;28;20122;-71
2023/12/27 06:49:00;;;;;;;10.20;2.47;;;11.30;99.90;;;;;;5034342;28;20037;-71
2023/12/27 06:51:26;;;;;;;10.50;2.17;;;11.30;99.90;;;;;;5031227;28;20033;-71
2023/12/27 06:53:51;;;;;;;7.38;2.03;;;11.40;99.90;;;;;;5034513;28;20447;-71
2023/12/27 06:56:20;;;;;;;8.55;2.10;;;;;;;;;;5030105;28;20041;-71
2023/12/27 06:58:48;;;;;;;8.13;4.45;;;;;;;;;;5034307;28;20025;-72
2023/12/27 07:01:16;;;;;;;6.22;2.28;;;;;;;;;;5030121;28;20049;-72
2023/12/27 07:03:43;;;;;;;6.38;2.58;;;;;;;;;;5020939;28;20037;-71
2023/12/27 07:06:10;;;;;;;5.18;2.38;;;;;;;;;;5031524;28;21223;-71
2023/12/27 07:08:37;;;;;;;8.07;2.25;;;;;;;;;;5035938;28;20713;-72
2023/12/27 07:11:04;;;;;;;6.43;3.25;;;;;;;;;;5019414;28;20096;-71
2023/12/27 07:13:31;;;;;;;9.30;3.15;;;;;;;;;;5031695;28;20152;-71
2023/12/27 07:15:58;;;;;;;12.60;2.05;;;;;;;;;;5029262;28;20033;-71
2023/12/27 07:18:26;;;;;;;9.98;2.05;;;;;;;;;;5031559;28;20029;-71
2023/12/27 07:20:52;;;;;;;9.07;2.78;;;;;;;;;;5033918;28;20099;-72
2023/12/27 07:23:18;;;;;;;26.58;3.28;;;11.60;99.90;;;;;;5029064;28;20497;-72
2023/12/27 07:25:44;;;;;;;3.60;2.20;;;11.60;99.90;;;;;;5035627;28;20045;-72
2023/12/27 07:28:09;;;;;;;8.50;2.08;;;11.60;99.90;;;;;;5036337;28;20048;-72
2023/12/27 07:30:35;;;;;;;5.07;2.22;;;11.50;99.90;;;;;;5024926;28;20108;-72
2023/12/27 07:33:00;;;;;;;3.40;1.90;;;11.50;99.90;;;;;;5035633;28;20511;-72
2023/12/27 07:35:26;;;;;;;10.07;3.20;;;11.50;99.90;;;;;;5033345;28;20026;-72
2023/12/27 07:37:52;;;;;;;10.02;2.50;;;11.50;99.90;;;;;;5056913;28;20033;-72
2023/12/27 07:40:18;;;;;;;8.68;2.10;;;11.50;99.90;;;;;;5045317;28;20512;-71
2023/12/27 07:42:44;;;;;;;12.05;2.75;;;11.50;99.90;;;;;;5032256;28;20029;-71
2023/12/27 07:45:10;;;;;;;8.52;1.85;;;11.50;99.90;;;;;;5032628;28;20039;-72
2023/12/27 07:47:35;;;;;;;8.50;2.70;;;11.50;99.90;;;;;;5036352;28;20509;-72
2023/12/27 07:50:01;;;;;;;9.48;1.77;;;11.50;99.90;;;;;;5032634;28;20033;-71
2023/12/27 07:52:26;;;;;;;7.22;2.45;;;11.50;99.90;;;;;;5038833;28;20490;-71
2023/12/27 07:54:52;;;;;;;6.65;1.85;;;11.50;99.90;;;;;;5040216;28;20029;-72
2023/12/27 07:57:18;;;;;;;8.88;2.60;;;11.50;99.90;;;;;;5030999;28;20018;-71
2023/12/27 07:59:43;;;;;;;9.00;2.10;;;11.60;99.90;;;;;;5041645;28;20394;-72
2023/12/27 08:02:09;;;;;;;6.63;2.33;;;11.60;99.90;;;;;;5035670;28;20393;-72
2023/12/27 08:04:35;;;;;;;6.30;1.83;;;11.50;99.90;;;;;;5036673;28;20049;-70
2023/12/27 08:07:00;;;;;;;12.63;2.90;;;11.50;99.90;;;;;;5036468;28;20033;-72
2023/12/27 08:09:26;;;;;;;14.57;2.92;;;11.50;99.90;;;;;;5036403;28;20967;-71
2023/12/27 08:11:52;;;;;;;9.80;2.75;;;11.50;99.90;;;;;;5037310;28;20040;-71
2023/12/27 08:14:18;;;;;;;11.85;3.50;;;11.50;99.90;;;;;;5037694;28;20440;-71
2023/12/27 08:16:44;;;;;;;6.38;2.08;;;;;;;;;;5029717;28;20044;-71
2023/12/27 08:19:10;;;;;;;10.52;2.85;;;;;;;;;;5037183;28;20063;-71
2023/12/27 08:21:36;;;;;;;13.75;3.22;;;;;;;;;;5037539;28;20691;-72
2023/12/27 08:24:02;;;;;;;9.25;3.13;;;;;;;;;;5033573;28;20029;-72
2023/12/27 08:26:28;;;;;;;11.40;3.55;;;;;;;;;;5038204;28;20060;-71
2023/12/27 08:28:53;;;;;;;9.65;2.78;;;11.60;99.90;;;;;;5034907;28;20025;-72
2023/12/27 08:31:19;;;;;;;5.25;2.40;;;11.70;99.90;;;;;;5031523;28;20037;-72
2023/12/27 08:33:48;;;;;;;11.90;2.05;;;11.60;99.90;;;;;;5038039;28;20035;-71
2023/12/27 08:36:14;;;;;;;3.30;2.83;;;11.60;99.90;;;;;;5034677;28;20030;-71
2023/12/27 08:38:41;;;;;;;16.40;3.22;;;11.60;99.90;;;;;;5038925;28;20051;-71
2023/12/27 08:41:06;;;;;;;8.50;2.53;;;11.60;99.90;;;;;;5035787;28;20231;-71
2023/12/27 08:43:33;;;;;;;7.30;2.40;;;11.60;99.90;;;;;;5030205;28;20037;-72
2023/12/27 08:45:58;;;;;;;8.02;2.85;;;11.60;99.90;;;;;;5034954;28;20489;-71
2023/12/27 08:48:24;;;;;;;17.25;3.78;;;11.60;99.90;;;;;;5035493;28;20045;-70
2023/12/27 08:50:51;;;;;;;9.27;2.60;;;11.60;99.90;;;;;;5030505;28;20029;-73
2023/12/27 08:53:17;;;;;;;18.25;3.53;;;11.60;99.90;;;;;;5040083;28;20032;-72
2023/12/27 08:55:42;;;;;;;11.60;2.80;;;11.60;99.90;;;;;;5037514;28;20021;-72
2023/12/27 08:58:09;;;;;;;9.40;2.97;;;11.60;99.90;;;;;;5032454;28;20025;-72
2023/12/27 09:00:35;;;;;;;13.70;2.72;;;11.60;99.90;;;;;;5035391;28;20103;-71
2023/12/27 09:03:00;;;;;;;8.13;2.80;;;11.60;99.90;;;;;;5031726;28;21017;-71
2023/12/27 09:05:26;;;;;;;10.23;2.40;;;11.60;99.90;;;;;;5033098;28;20033;-71
2023/12/27 09:07:52;;;;;;;7.13;2.67;;;11.60;99.90;;;;;;5034509;28;20120;-72
2023/12/27 09:10:17;;;;;;;7.72;2.35;;;11.60;99.90;;;;;;5032799;28;20063;-72
2023/12/27 09:12:44;;;;;;;25.92;3.33;;;11.70;99.90;;;;;;5032816;28;20029;-72
2023/12/27 09:15:10;;;;;;;13.60;3.47;;;11.70;99.90;;;;;;5035421;28;20592;-72
2023/12/27 09:17:36;;;;;;;14.23;3.00;;;11.70;99.90;;;;;;5028923;28;20033;-71
2023/12/27 09:20:03;;;;;;;6.78;2.67;;;11.70;99.90;;;;;;5040205;28;20025;-71
2023/12/27 09:22:29;;;;;;;3.70;2.75;;;11.70;99.90;;;;;;5033077;28;20033;-70
2023/12/27 09:24:55;;;;;;;11.73;3.17;;;11.70;99.90;;;;;;5029973;28;20168;-71
2023/12/27 09:27:20;;;;;;;14.98;3.15;;;11.70;99.90;;;;;;5037370;28;20320;-72
2023/12/27 09:29:46;;;;;;;16.67;3.03;;;11.70;99.90;;;;;;5035870;28;20036;-72
2023/12/27 09:32:12;;;;;;;10.00;2.08;;;11.70;99.90;;;;;;5034634;28;20029;-72
2023/12/27 09:34:37;;;;;;;16.35;3.75;;;11.70;99.90;;;;;;5037284;28;20033;-72
2023/12/27 09:37:03;;;;;;;8.45;2.72;;;11.70;99.90;;;;;;5033191;28;20055;-72
2023/12/27 09:39:29;;;;;;;15.05;3.08;;;11.70;99.90;;;;;;5037608;28;20037;-71
2023/12/27 09:41:56;;;;;;;8.15;1.98;;;11.70;99.90;;;;;;5037118;28;20132;-70
2023/12/27 09:44:22;;;;;;;11.40;2.95;;;11.70;99.90;;;;;;5030524;28;20569;-71
2023/12/27 09:46:48;;;;;;;9.25;2.67;;;11.70;99.90;;;;;;5033356;28;20048;-71
2023/12/27 09:49:15;;;;;;;9.05;2.65;;;11.70;99.90;;;;;;5032607;28;20504;-71
2023/12/27 09:51:42;;;;;;;7.47;3.10;;;11.70;99.90;;;;;;5029707;28;20044;-72
2023/12/27 09:54:08;;;;;;;7.95;2.35;;;11.70;99.90;;;;;;5036543;28;20071;-72
2023/12/27 09:56:36;;;;;;;4.93;2.65;;;11.70;99.90;;;;;;5037300;28;20068;-72
2023/12/27 09:59:06;;;;;;;16.27;2.83;;;11.60;99.90;;;;;;5034235;28;21225;-72
2023/12/27 10:01:37;;;;;;;8.15;3.17;;;11.70;99.90;;;;;;5037810;28;20171;-72
2023/12/27 10:04:26;;;;;;;16.98;4.15;;;11.60;99.90;;;;;;5026459;28;20060;-71
2023/12/27 10:06:53;;;;;;;9.80;3.65;;;11.60;99.90;;;;;;5032146;28;21092;-71
2023/12/27 10:09:19;;;;;;;14.45;3.65;;;11.60;99.90;;;;;;5036323;28;20036;-71
2023/12/27 10:11:45;;;;;;;14.13;3.63;;;11.60;99.90;;;;;;5032044;28;20063;-72
2023/12/27 10:14:13;;;;;;;16.38;3.63;;;11.60;99.90;;;;;;5036241;28;20029;-72
2023/12/27 10:16:39;;;;;;;8.57;2.60;;;11.70;99.90;;;;;;5054946;28;20017;-71
2023/12/27 10:19:05;;;;;;;5.05;2.47;;;11.70;99.90;;;;;;5044803;28;20094;-71
2023/12/27 10:21:46;;;;;;;10.50;3.55;;;11.70;99.90;;;;;;5035805;28;20033;-72
2023/12/27 10:24:12;;;;;;;15.23;2.65;;;11.70;99.90;;;;;;5029985;28;20052;-71
2023/12/27 10:26:38;;;;;;;10.65;3.53;;;11.70;99.90;;;;;;5037233;28;20489;-71
2023/12/27 10:29:05;;;;;;;10.30;3.05;;;11.70;99.90;;;;;;5037736;28;20094;-71
2023/12/27 10:31:30;;;;;;;16.30;3.22;;;11.70;99.90;;;;;;5031236;28;20060;-72
2023/12/27 10:34:00;;;;;;;13.52;4.22;;;11.60;99.90;;;;;;5031482;28;20473;-72
2023/12/27 10:36:26;;;;;;;22.90;2.85;;;11.60;99.90;;;;;;5033609;28;20033;-71
2023/12/27 10:38:52;;;;;;;4.95;2.72;;;11.60;99.90;;;;;;5029812;28;20064;-71
2023/12/27 10:41:17;;;;;;;25.45;3.85;;;11.60;99.90;;;;;;5035510;28;20044;-71
2023/12/27 10:43:44;;;;;;;9.95;2.63;;;11.70;99.90;;;;;;5032507;28;20451;-71
2023/12/27 10:46:10;;;;;;;20.13;3.90;;;11.70;99.90;;;;;;5033928;28;20021;-71
2023/12/27 10:48:39;;;;;;;10.60;3.10;;;11.60;99.90;;;;;;5028631;28;20063;-70
2023/12/27 10:51:07;;;;;;;7.68;2.70;;;11.60;99.90;;;;;;5027644;28;20166;-71
2023/12/27 10:53:35;;;;;;;9.50;2.67;;;11.60;99.90;;;;;;5035345;28;20040;-72
2023/12/27 10:56:03;;;;;;;14.35;2.40;;;11.50;99.90;;;;;;5033222;28;20032;-71
2023/12/27 10:58:32;;;;;;;7.68;3.10;;;11.50;99.90;;;;;;5030160;28;20029;-72
2023/12/27 11:00:58;;;;;;;15.80;3.03;;;11.50;99.90;;;;;;5033936;28;20045;-71
2023/12/27 11:03:25;;;;;;;7.47;2.63;;;11.50;99.90;;;;;;5034366;28;20485;-70
2023/12/27 11:05:51;;;;;;;11.32;2.70;;;11.50;99.90;;;;;;5033392;28;20423;-71
2023/12/27 11:08:20;;;;;;;15.27;3.38;;;11.50;99.90;;;;;;5036391;28;20040;-72
2023/12/27 11:10:48;;;;;;;3.67;1.83;;;11.60;99.90;;;;;;5028595;28;20512;-71
2023/12/27 11:13:16;;;;;;;13.85;3.47;;;11.60;99.90;;;;;;5035580;28;20397;-71
2023/12/27 11:15:45;;;;;;;6.85;2.83;;;11.60;99.90;;;;;;5039154;28;20497;-71
2023/12/27 11:18:11;;;;;;;6.40;2.65;;;11.60;99.90;;;;;;5029558;28;20397;-71
2023/12/27 11:20:39;;;;;;;7.30;2.90;;;11.60;99.90;;;;;;5037341;28;20091;-71
2023/12/27 11:23:06;;;;;;;8.63;2.28;;;11.60;99.90;;;;;;5037844;28;20059;-72
2023/12/27 11:25:32;;;;;;;5.50;1.92;;;11.60;99.90;;;;;;5033899;28;20112;-71
2023/12/27 11:27:59;;;;;;;11.40;3.22;;;11.60;99.90;;;;;;5035783;28;20044;-71
2023/12/27 11:30:26;;;;;;;14.55;2.85;;;11.60;99.90;;;;;;5037176;28;20449;-73
2023/12/27 11:32:53;;;;;;;11.80;2.92;;;11.60;99.90;;;;;;5037075;28;20037;-71
2023/12/27 11:35:23;;;;;;;12.13;3.10;;;11.60;99.90;;;;;;5039024;28;20477;-70
2023/12/27 11:37:50;;;;;;;7.32;2.72;;;11.60;99.90;;;;;;5030789;28;20037;-72
2023/12/27 11:40:33;;;;;;;27.55;4.65;;;11.70;99.90;;;;;;5034152;28;20107;-72
2023/12/27 11:42:59;;;;;;;7.68;2.35;;;11.70;99.90;;;;;;5035359;28;20120;-71
2023/12/27 11:45:47;;;;;;;9.90;2.42;;;11.70;99.90;;;;;;5034292;28;20523;-71
2023/12/27 11:48:13;;;;;;;11.15;2.75;;;11.80;99.90;;;;;;5035915;28;20048;-72
2023/12/27 11:50:38;;;;;;;7.22;2.72;;;11.80;99.90;;;;;;5030535;28;20393;-72
2023/12/27 11:53:05;;;;;;;9.00;3.45;;;11.80;99.90;;;;;;5032003;28;20056;-71
2023/12/27 11:55:33;;;;;;;11.90;2.90;;;11.70;99.90;;;;;;5035752;28;20033;-72
2023/12/27 11:57:58;;;;;;;7.32;3.17;;;11.70;99.90;;;;;;5030186;28;20033;-71
2023/12/27 12:00:28;;;;;;;6.80;2.40;;;11.70;99.90;;;;;;5036961;28;20057;-72
2023/12/27 12:02:59;;;;;;;12.10;3.13;;;11.70;99.90;;;;;;5039849;28;20532;-71
2023/12/27 12:05:58;;;;;;;9.68;2.33;;;11.70;99.90;;;;;;5030576;28;20397;-72
2023/12/27 12:08:41;;;;;;;6.70;3.05;;;11.70;99.90;;;;;;5035121;28;20035;-72
2023/12/27 12:11:11;;;;;;;23.88;3.28;;;11.70;99.90;;;;;;5030508;28;20539;-71
2023/12/27 12:13:39;;;;;;;9.88;2.92;;;11.70;99.90;;;;;;5036144;28;20041;-71
2023/12/27 12:16:06;;;;;;;30.52;3.90;;;11.70;99.90;;;;;;5036592;28;20078;-71
2023/12/27 12:18:34;;;;;;;6.65;2.50;;;11.70;99.90;;;;;;5030216;28;20535;-70
2023/12/27 12:21:00;;;;;;;13.40;2.80;;;11.70;99.90;;;;;;5036895;28;20141;-72
2023/12/27 12:23:30;;;;;;;21.25;3.00;;;11.70;99.90;;;;;;5033394;28;20548;-71
2023/12/27 12:26:00;;;;;;;8.52;2.30;;;11.60;99.90;;;;;;5034472;28;20025;-71
2023/12/27 12:28:27;;;;;;;12.07;2.63;;;11.60;99.90;;;;;;5036610;28;20036;-72
2023/12/27 12:30:54;;;;;;;9.68;3.55;;;11.60;99.90;;;;;;5032511;28;20025;-71
2023/12/27 12:33:19;;;;;;;4.25;1.70;;;11.70;99.90;;;;;;5035891;28;20406;-72
2023/12/27 12:35:45;;;;;;;18.52;4.00;;;11.60;99.90;;;;;;5040029;28;20030;-71
2023/12/27 12:38:11;;;;;;;18.27;2.67;;;11.60;99.90;;;;;;5033721;28;20030;-71
2023/12/27 12:40:37;;;;;;;17.52;3.83;;;11.60;99.90;;;;;;5037495;28;20041;-70
2023/12/27 12:43:03;;;;;;;13.63;3.55;;;11.70;99.90;;;;;;5035153;28;20384;-71
2023/12/27 12:45:29;;;;;;;18.80;4.55;;;11.70;99.90;;;;;;5030238;28;20449;-71
2023/12/27 12:47:55;;;;;;;9.45;2.88;;;11.70;99.90;;;;;;5035554;28;20048;-70
2023/12/27 12:50:21;;;;;;;10.50;2.40;;;11.70;99.90;;;;;;5033258;28;20041;-72
2023/12/27 12:52:46;;;;;;;16.17;3.08;;;11.70;99.90;;;;;;5033561;28;20048;-71
2023/12/27 12:55:12;;;;;;;14.45;2.13;;;11.70;99.90;;;;;;5047097;28;20037;-71
2023/12/27 12:57:38;;;;;;;14.30;3.10;;;11.70;99.90;;;;;;5056546;28;20045;-71
2023/12/27 13:00:05;;;;;;;15.07;2.80;;;11.70;99.90;;;;;;5034867;28;20053;-71